Time;durP1;ratioP1;P1;durP2;ratioP2;P2;SDS_P1;SDS_P2;PMS_P1;PMS_P2;Temp;Humidity;BMP_temperature;BMP_pressure;BME280_temperature;BME280_humidity;BME280_pressure;Samples;Min_cycle;Max_cycle;Signal;HPM_P1;HPM_P2
2021/03/03 00:02:27;;;;;;;72.53;37.63;;;;;;;4.36;100.00;103114.84;1799141;79;939074;-76
2021/03/03 00:04:57;;;;;;;77.92;37.60;;;;;;;4.49;100.00;103116.92;1787284;78;940620;-76
2021/03/03 00:07:27;;;;;;;82.27;39.00;;;;;;;4.61;100.00;103121.42;1799357;78;938681;-76
2021/03/03 00:09:57;;;;;;;86.87;41.33;;;;;;;4.73;100.00;103118.00;1787596;78;938573;-76
2021/03/03 00:12:26;;;;;;;96.87;42.77;;;;;;;4.89;100.00;103126.05;1799121;78;938665;-76
2021/03/03 00:14:56;;;;;;;75.83;38.92;;;;;;;4.83;100.00;103124.59;1787460;78;938645;-76
2021/03/03 00:17:26;;;;;;;87.13;41.53;;;;;;;4.78;100.00;103128.44;1799163;78;938632;-76
2021/03/03 00:19:56;;;;;;;92.27;43.87;;;;;;;4.80;100.00;103129.94;1787282;78;938938;-76
2021/03/03 00:22:26;;;;;;;96.47;42.33;;;;;;;4.92;100.00;103142.17;1799226;79;938615;-76
2021/03/03 00:24:55;;;;;;;90.07;44.43;;;;;;;5.05;100.00;103135.97;1787508;78;938811;-76
2021/03/03 00:27:25;;;;;;;95.37;43.30;;;;;;;5.18;100.00;103140.83;1799196;78;938785;-76
2021/03/03 00:29:55;;;;;;;96.63;42.90;;;;;;;5.26;100.00;103147.04;1787369;79;938607;-76
2021/03/03 00:32:25;;;;;;;101.63;44.77;;;;;;;5.33;100.00;103147.13;1799194;79;938639;-75
2021/03/03 00:34:54;;;;;;;104.50;45.40;;;;;;;5.31;100.00;103143.70;1787393;79;940680;-75
2021/03/03 00:37:24;;;;;;;102.60;46.20;;;;;;;5.43;100.00;103148.52;1799103;79;940765;-75
2021/03/03 00:39:54;;;;;;;101.45;47.03;;;;;;;5.54;100.00;103143.02;1787235;78;940947;-75
2021/03/03 00:42:24;;;;;;;101.20;48.80;;;;;;;5.48;100.00;103146.55;1799227;77;940799;-76
2021/03/03 00:44:54;;;;;;;105.00;46.48;;;;;;;5.45;100.00;103154.70;1787409;77;940791;-75
2021/03/03 00:47:24;;;;;;;104.83;47.43;;;;;;;5.53;100.00;103156.47;1799214;77;940625;-76
2021/03/03 00:49:53;;;;;;;101.73;46.30;;;;;;;5.61;100.00;103164.61;1787376;78;940694;-76
2021/03/03 00:52:23;;;;;;;106.87;48.10;;;;;;;5.57;100.00;103164.67;1799128;79;940662;-75
2021/03/03 00:54:53;;;;;;;112.83;46.77;;;;;;;5.61;100.00;103167.38;1787302;78;940792;-75
2021/03/03 00:57:23;;;;;;;102.73;47.20;;;;;;;5.70;100.00;103162.06;1799178;79;940621;-76
2021/03/03 00:59:53;;;;;;;113.40;48.93;;;;;;;5.67;100.00;103168.50;1787358;77;940655;-76
2021/03/03 01:02:22;;;;;;;112.23;50.33;;;;;;;5.84;100.00;103175.46;1799023;77;940786;-75
2021/03/03 01:04:52;;;;;;;105.17;48.55;;;;;;;5.79;100.00;103171.06;1787044;78;940893;-75
2021/03/03 01:07:22;;;;;;;112.60;49.07;;;;;;;5.87;100.00;103181.98;1799033;77;940679;-76
2021/03/03 01:09:52;;;;;;;113.68;47.65;;;;;;;5.77;100.00;103184.20;1787310;79;940993;-77
2021/03/03 01:12:22;;;;;;;106.43;49.67;;;;;;;5.94;100.00;103180.17;1799125;78;940782;-75
2021/03/03 01:14:51;;;;;;;112.13;49.20;;;;;;;5.82;100.00;103177.55;1787529;78;940798;-76
2021/03/03 01:17:21;;;;;;;105.20;49.13;;;;;;;5.82;100.00;103171.52;1799267;77;940799;-76
2021/03/03 01:19:51;;;;;;;117.40;51.20;;;;;;;5.73;100.00;103179.61;1787253;79;940776;-76
2021/03/03 01:22:21;;;;;;;112.87;48.87;;;;;;;5.70;100.00;103186.02;1799299;79;940757;-76
2021/03/03 01:24:51;;;;;;;109.87;49.53;;;;;;;5.73;100.00;103186.52;1787296;78;940750;-76
2021/03/03 01:27:21;;;;;;;117.47;50.53;;;;;;;5.72;100.00;103190.31;1799213;78;940703;-76
2021/03/03 01:29:51;;;;;;;115.03;52.50;;;;;;;5.72;100.00;103190.31;1787299;79;940753;-75
2021/03/03 01:32:21;;;;;;;116.10;49.67;;;;;;;5.78;100.00;103193.64;1799127;79;940990;-76
2021/03/03 01:34:50;;;;;;;103.85;48.75;;;;;;;5.72;100.00;103192.20;1787104;79;940882;-75
2021/03/03 01:37:20;;;;;;;111.13;49.50;;;;;;;5.85;100.00;103193.73;1799084;79;940640;-76
2021/03/03 01:39:50;;;;;;;118.03;50.50;;;;;;;5.75;100.00;103184.91;1787127;78;940799;-76
2021/03/03 01:42:20;;;;;;;113.63;48.73;;;;;;;5.69;100.00;103188.47;1799117;78;940721;-76
2021/03/03 01:44:50;;;;;;;112.33;48.73;;;;;;;5.76;100.00;103196.28;1787170;79;940983;-75
2021/03/03 01:47:19;;;;;;;116.60;49.07;;;;;;;5.64;100.00;103207.50;1799156;78;940917;-76
2021/03/03 01:49:49;;;;;;;116.10;49.67;;;;;;;5.64;100.00;103207.50;1787223;78;940941;-76
2021/03/03 01:52:20;;;;;;;106.07;49.83;;;;;;;5.78;100.00;103214.33;1799012;78;940925;-76
2021/03/03 01:54:50;;;;;;;116.90;51.50;;;;;;;5.65;100.00;103221.62;1787173;78;940879;-76
2021/03/03 01:57:22;;;;;;;111.70;49.23;;;;;;;5.78;100.00;103205.20;1799164;78;940835;-76
2021/03/03 01:59:52;;;;;;;115.05;50.55;;;;;;;5.94;100.00;103192.06;1787224;79;940594;-76
2021/03/03 02:02:24;;;;;;;105.97;49.90;;;;;;;5.82;100.00;103191.34;1799000;79;940870;-76
2021/03/03 02:04:55;;;;;;;107.90;47.23;;;;;;;5.77;100.00;103186.97;1787247;79;939571;-76
2021/03/03 02:07:28;;;;;;;97.33;44.53;;;;;;;5.94;100.00;103181.55;1799140;78;940816;-76
2021/03/03 02:10:02;;;;;;;91.40;44.27;;;;;;;5.86;100.00;103180.27;1786748;77;938843;-76
2021/03/03 02:12:35;;;;;;;93.03;42.37;;;;;;;5.85;100.00;103202.86;1799103;78;938598;-76
2021/03/03 02:15:09;;;;;;;88.92;41.58;;;;;;;5.88;100.00;103207.15;1787371;78;938741;-76
2021/03/03 02:17:41;;;;;;;78.50;38.53;;;;;;;5.67;100.00;103206.58;1799097;78;937112;-76
2021/03/03 02:20:15;;;;;;;84.65;40.75;;;;;;;5.69;100.00;103216.87;1786070;78;1011700;-76
2021/03/03 02:22:50;;;;;;;89.67;39.53;;;;;;;5.63;100.00;103221.81;1799078;79;938855;-76
2021/03/03 02:25:26;;;;;;;84.73;39.20;;;;;;;5.60;100.00;103220.83;1798659;78;938723;-75
2021/03/03 02:27:59;;;;;;;77.90;38.70;;;;;;;5.70;100.00;103213.08;1787116;79;938604;-75
2021/03/03 02:30:29;;;;;;;84.97;39.67;;;;;;;5.81;100.00;103200.69;1799011;79;938637;-76
2021/03/03 02:33:00;;;;;;;82.50;39.10;;;;;;;5.74;100.00;103199.74;1786989;79;938736;-75
2021/03/03 02:35:32;;;;;;;81.40;39.10;;;;;;;5.71;100.00;103185.84;1798939;79;938654;-76
2021/03/03 02:38:04;;;;;;;88.67;41.48;;;;;;;5.65;100.00;103187.98;1787336;79;938614;-76
2021/03/03 02:40:35;;;;;;;87.63;40.50;;;;;;;5.67;100.00;103190.04;1798940;79;936858;-74
2021/03/03 02:43:06;;;;;;;91.63;40.70;;;;;;;5.63;100.00;103187.87;1787466;77;938626;-74
2021/03/03 02:45:36;;;;;;;85.57;39.60;;;;;;;5.58;100.00;103198.62;1799016;78;936705;-74
2021/03/03 02:48:10;;;;;;;91.03;41.23;;;;;;;5.71;100.00;103191.88;1787267;77;938671;-75
2021/03/03 02:50:39;;;;;;;98.15;44.50;;;;;;;5.71;100.00;103196.01;1798882;79;936787;-76
2021/03/03 02:53:09;;;;;;;101.93;44.43;;;;;;;5.67;100.00;103204.34;1787138;78;938675;-75
2021/03/03 02:55:39;;;;;;;95.30;43.80;;;;;;;5.60;100.00;103202.05;1798952;79;938907;-75
2021/03/03 02:58:09;;;;;;;98.97;42.90;;;;;;;5.61;100.00;103207.34;1787195;77;937890;-75
2021/03/03 03:00:41;;;;;;;101.23;45.07;;;;;;;5.61;100.00;103212.86;1799041;79;936850;-77
2021/03/03 03:03:16;;;;;;;98.63;44.13;;;;;;;5.50;100.00;103214.76;1785910;78;1016263;-76
2021/03/03 03:05:49;;;;;;;88.30;42.87;;;;;;;5.49;100.00;103217.17;1799026;78;938718;-76
2021/03/03 03:08:21;;;;;;;96.27;44.13;;;;;;;5.50;100.00;103219.75;1798823;78;938585;-75
2021/03/03 03:10:53;;;;;;;89.57;42.47;;;;;;;5.53;100.00;103215.74;1787238;78;938562;-75
2021/03/03 03:13:24;;;;;;;98.47;43.30;;;;;;;5.52;100.00;103224.23;1798952;78;938895;-76
2021/03/03 03:15:54;;;;;;;93.20;42.67;;;;;;;5.51;100.00;103226.13;1787167;77;938660;-75
2021/03/03 03:18:27;;;;;;;93.40;43.27;;;;;;;5.41;100.00;103225.56;1799073;78;938640;-75
2021/03/03 03:20:59;;;;;;;92.92;41.13;;;;;;;5.41;100.00;103229.70;1787075;79;939784;-75
2021/03/03 03:23:30;;;;;;;90.17;41.67;;;;;;;5.48;100.00;103229.25;1799123;78;938643;-76
2021/03/03 03:26:00;;;;;;;95.50;40.53;;;;;;;5.41;100.00;103228.32;1787135;79;938591;-75
2021/03/03 03:28:31;;;;;;;96.70;41.10;;;;;;;5.25;100.00;103231.30;1797665;77;938603;-75
2021/03/03 03:31:02;;;;;;;93.85;40.88;;;;;;;5.38;100.00;103225.44;1787066;79;938812;-75
2021/03/03 03:33:33;;;;;;;95.63;41.03;;;;;;;5.34;100.00;103240.66;1798962;79;938724;-76
2021/03/03 03:36:05;;;;;;;85.67;40.60;;;;;;;5.23;100.00;103236.13;1787234;79;938795;-75
2021/03/03 03:38:35;;;;;;;100.40;43.27;;;;;;;5.30;100.00;103239.85;1799057;79;936793;-76
2021/03/03 03:41:07;;;;;;;87.25;39.38;;;;;;;5.24;100.00;103251.62;1787221;79;940725;-76
2021/03/03 03:43:56;;;;;;;100.78;41.50;;;;;;;5.28;100.00;103252.44;1700103;81;938854;-76
2021/03/03 03:46:27;;;;;;;93.40;42.37;;;;;;;5.34;100.00;103257.19;1745285;81;940778;-77
2021/03/03 03:48:57;;;;;;;84.28;39.20;;;;;;;5.25;100.00;103254.20;1733811;81;938892;-76
2021/03/03 03:51:28;;;;;;;91.37;41.27;;;;;;;5.26;100.00;103262.78;1745322;81;938621;-76
2021/03/03 03:53:58;;;;;;;88.13;41.20;;;;;;;5.22;100.00;103254.56;1733909;79;938712;-75
2021/03/03 03:56:28;;;;;;;90.33;40.83;;;;;;;5.30;100.00;103258.62;1734938;81;938708;-76
2021/03/03 03:58:57;;;;;;;92.47;40.78;;;;;;;5.38;100.00;103250.25;1723420;81;938741;-76
2021/03/03 04:01:27;;;;;;;86.60;40.67;;;;;;;5.35;100.00;103255.27;1734902;81;938602;-76
2021/03/03 04:03:57;;;;;;;97.67;41.00;;;;;;;5.33;100.00;103243.59;1723287;81;938594;-76
2021/03/03 04:06:27;;;;;;;93.33;40.07;;;;;;;5.34;100.00;103268.22;1735027;80;937530;-76
2021/03/03 04:08:57;;;;;;;94.72;41.42;;;;;;;5.47;100.00;103265.63;1723420;81;938847;-75
2021/03/03 04:11:27;;;;;;;95.87;40.73;;;;;;;5.43;100.00;103268.41;1734969;81;938757;-75
2021/03/03 04:13:57;;;;;;;101.58;42.73;;;;;;;5.47;100.00;103276.66;1723783;80;938738;-75
2021/03/03 04:16:26;;;;;;;95.13;41.30;;;;;;;5.39;100.00;103270.40;1799265;76;940628;-76
2021/03/03 04:18:56;;;;;;;92.27;41.90;;;;;;;5.55;100.00;103280.34;1787534;77;938771;-76
2021/03/03 04:21:26;;;;;;;99.27;41.57;;;;;;;5.44;100.00;103277.02;1799294;79;938753;-76
2021/03/03 04:23:56;;;;;;;89.42;41.95;;;;;;;5.48;100.00;103267.32;1787461;77;938586;-75
2021/03/03 04:26:26;;;;;;;91.70;40.27;;;;;;;5.55;100.00;103256.91;1799404;79;938708;-75
2021/03/03 04:28:55;;;;;;;102.85;43.23;;;;;;;5.52;100.00;103269.16;1787390;79;948348;-75
2021/03/03 04:31:25;;;;;;;90.60;41.50;;;;;;;5.48;100.00;103267.32;1799179;78;939659;-76
2021/03/03 04:33:55;;;;;;;100.77;42.17;;;;;;;5.39;100.00;103273.98;1787418;78;937720;-74
2021/03/03 04:36:25;;;;;;;99.03;41.63;;;;;;;5.42;100.00;103263.97;1799309;79;940851;-75
2021/03/03 04:38:55;;;;;;;102.20;42.65;;;;;;;5.58;100.00;103263.41;1787472;79;938573;-75
2021/03/03 04:41:24;;;;;;;108.83;41.60;;;;;;;5.57;100.00;103263.93;1799118;77;940946;-75
2021/03/03 04:43:54;;;;;;;101.03;43.43;;;;;;;5.53;100.00;103270.02;1787393;78;940674;-75
2021/03/03 04:46:24;;;;;;;105.33;41.93;;;;;;;5.41;100.00;103273.28;1799252;78;940699;-75
2021/03/03 04:48:54;;;;;;;108.63;43.45;;;;;;;5.54;100.00;103296.03;1787133;79;940932;-75
2021/03/03 04:51:24;;;;;;;113.23;43.43;;;;;;;5.60;100.00;103295.80;1799199;78;940703;-76
2021/03/03 04:53:53;;;;;;;95.53;44.10;;;;;;;5.60;100.00;103302.69;1787357;78;941029;-75
2021/03/03 04:56:23;;;;;;;112.17;45.30;;;;;;;5.63;100.00;103311.42;1799299;78;938598;-75
2021/03/03 04:58:53;;;;;;;107.90;44.43;;;;;;;5.71;100.00;103312.69;1787378;78;939602;-76
2021/03/03 05:01:23;;;;;;;114.10;46.33;;;;;;;5.82;100.00;103316.84;1787332;78;940731;-77
2021/03/03 05:03:52;;;;;;;114.40;45.33;;;;;;;5.80;100.00;103325.84;1787046;79;940782;-76
2021/03/03 05:06:22;;;;;;;113.83;44.33;;;;;;;5.77;100.00;103327.63;1799253;77;940631;-76
2021/03/03 05:08:53;;;;;;;104.90;43.55;;;;;;;5.76;100.00;103317.63;1787354;78;940742;-75
2021/03/03 05:11:25;;;;;;;105.30;45.00;;;;;;;5.78;100.00;103316.89;1798984;78;940890;-76
2021/03/03 05:13:54;;;;;;;116.42;44.60;;;;;;;5.63;100.00;103314.70;1787212;78;940694;-75
2021/03/03 05:16:24;;;;;;;115.37;44.87;;;;;;;5.54;100.00;103307.58;1799241;77;940773;-75
2021/03/03 05:18:54;;;;;;;107.58;45.08;;;;;;;5.59;100.00;103303.73;1787354;78;940737;-75
2021/03/03 05:21:24;;;;;;;122.90;45.40;;;;;;;5.63;100.00;103308.66;1799170;78;940691;-76
2021/03/03 05:23:54;;;;;;;105.47;44.47;;;;;;;5.57;100.00;103302.53;1787537;79;939633;-75
2021/03/03 05:26:23;;;;;;;123.87;44.75;;;;;;;5.62;100.00;103309.70;1799125;78;940650;-76
2021/03/03 05:28:53;;;;;;;109.83;44.83;;;;;;;5.61;100.00;103310.75;1787248;78;941296;-75
2021/03/03 05:31:23;;;;;;;106.13;45.33;;;;;;;5.71;100.00;103306.31;1799315;78;940854;-76
2021/03/03 05:33:53;;;;;;;119.62;44.40;;;;;;;5.71;100.00;103305.80;1787325;78;940869;-76
2021/03/03 05:36:23;;;;;;;121.73;47.07;;;;;;;5.69;100.00;103308.42;1799076;79;939957;-76
2021/03/03 05:38:53;;;;;;;112.37;44.40;;;;;;;5.67;100.00;103307.23;1787368;77;939670;-76
2021/03/03 05:41:25;;;;;;;113.93;45.00;;;;;;;5.62;100.00;103304.71;1799135;78;940954;-76
2021/03/03 05:43:56;;;;;;;106.35;44.77;;;;;;;5.62;100.00;103302.81;1787152;78;940691;-75
2021/03/03 05:46:26;;;;;;;126.30;49.80;;;;;;;5.68;100.00;103291.55;1799122;79;941156;-75
2021/03/03 05:48:58;;;;;;;116.97;48.47;;;;;;;5.81;100.00;103297.22;1787414;78;940704;-75
2021/03/03 05:51:30;;;;;;;109.80;47.47;;;;;;;5.79;100.00;103292.41;1799115;78;940846;-75
2021/03/03 05:54:01;;;;;;;123.58;47.50;;;;;;;5.86;100.00;103285.09;1787440;78;940829;-76
2021/03/03 05:56:32;;;;;;;116.07;49.53;;;;;;;5.88;100.00;103289.91;1799152;78;940775;-76
2021/03/03 05:59:03;;;;;;;107.55;45.80;;;;;;;5.87;100.00;103289.05;1787290;78;940943;-75
2021/03/03 06:01:33;;;;;;;106.03;47.00;;;;;;;5.91;100.00;103287.60;1799039;78;938794;-75
2021/03/03 06:04:04;;;;;;;100.33;46.20;;;;;;;5.86;100.00;103284.57;1787192;78;940645;-75
2021/03/03 06:06:35;;;;;;;106.47;47.10;;;;;;;5.85;100.00;103291.13;1799160;79;938969;-75
2021/03/03 06:09:05;;;;;;;102.02;45.52;;;;;;;5.81;100.00;103284.30;1787505;77;940867;-76
2021/03/03 06:11:36;;;;;;;98.17;45.47;;;;;;;5.82;100.00;103277.70;1799258;79;938745;-76
2021/03/03 06:14:05;;;;;;;101.95;47.00;;;;;;;5.79;100.00;103289.12;1787523;78;938724;-75
2021/03/03 06:16:36;;;;;;;107.27;46.70;;;;;;;5.72;100.00;103287.35;1799301;78;938729;-76
2021/03/03 06:19:06;;;;;;;99.73;45.47;;;;;;;5.83;100.00;103275.80;1787364;77;940877;-75
2021/03/03 06:21:36;;;;;;;104.37;47.00;;;;;;;5.79;100.00;103278.09;1799250;79;936765;-76
2021/03/03 06:24:09;;;;;;;102.40;44.40;;;;;;;5.84;100.00;103284.41;1787268;78;940855;-76
2021/03/03 06:26:55;;;;;;;103.50;45.35;;;;;;;5.82;100.00;103296.15;1799153;78;938886;-76
2021/03/03 06:29:25;;;;;;;97.47;45.93;;;;;;;5.82;100.00;103300.29;1769516;80;940696;-76
2021/03/03 06:31:55;;;;;;;94.60;44.33;;;;;;;5.73;100.00;103313.89;1787001;78;938573;-75
2021/03/03 06:34:26;;;;;;;94.45;46.45;;;;;;;5.82;100.00;103320.45;1798473;78;938791;-75
2021/03/03 06:37:02;;;;;;;90.22;46.70;;;;;;;5.76;100.00;103328.66;1787356;79;938653;-75
2021/03/03 06:39:34;;;;;;;95.47;44.10;;;;;;;5.76;100.00;103324.52;1799052;78;938642;-75
2021/03/03 06:42:05;;;;;;;92.70;45.85;;;;;;;5.71;100.00;103330.62;1787421;79;938587;-76
2021/03/03 06:44:49;;;;;;;95.40;42.20;;;;;;;5.71;100.00;103338.89;1799288;79;936679;-76
2021/03/03 06:47:21;;;;;;;94.10;44.00;;;;;;;5.79;100.00;103338.77;1799159;79;937762;-75
2021/03/03 06:49:53;;;;;;;102.23;44.73;;;;;;;5.78;100.00;103336.20;1787294;79;938662;-75
2021/03/03 06:52:40;;;;;;;94.40;44.13;;;;;;;5.71;100.00;103338.89;1799064;79;940810;-75
2021/03/03 06:55:12;;;;;;;89.17;42.90;;;;;;;5.79;100.00;103343.44;1787242;79;938816;-75
2021/03/03 06:57:42;;;;;;;95.67;42.97;;;;;;;5.70;100.00;103338.55;1799163;79;936681;-75
2021/03/03 07:00:13;;;;;;;99.03;43.58;;;;;;;5.69;100.00;103342.90;1785989;78;1032898;-76
2021/03/03 07:02:43;;;;;;;87.57;41.50;;;;;;;5.66;100.00;103350.16;1798779;79;938817;-75
2021/03/03 07:05:15;;;;;;;89.03;42.20;;;;;;;5.77;100.00;103358.82;1799059;79;938829;-74
2021/03/03 07:07:47;;;;;;;92.03;41.57;;;;;;;5.75;100.00;103349.01;1799181;78;936966;-74
2021/03/03 07:10:19;;;;;;;89.60;41.63;;;;;;;5.77;100.00;103355.20;1797148;77;938665;-74
2021/03/03 07:12:50;;;;;;;86.63;41.20;;;;;;;5.71;100.00;103365.09;1785308;77;938856;-75
2021/03/03 07:15:22;;;;;;;97.83;42.03;;;;;;;5.72;100.00;103362.67;1799087;78;937738;-75
2021/03/03 07:17:52;;;;;;;96.15;42.00;;;;;;;5.83;100.00;103365.44;1786227;77;938587;-73
2021/03/03 07:20:21;;;;;;;92.13;42.00;;;;;;;5.83;100.00;103369.58;1798946;79;938622;-75
2021/03/03 07:22:56;;;;;;;92.43;40.43;;;;;;;5.77;100.00;103368.47;1787418;77;938656;-76
2021/03/03 07:25:25;;;;;;;87.57;40.17;;;;;;;5.74;100.00;103358.32;1798804;78;938680;-77
2021/03/03 07:27:55;;;;;;;95.53;42.13;;;;;;;5.70;100.00;103351.48;1787542;78;938797;-77
2021/03/03 07:30:26;;;;;;;97.20;42.40;;;;;;;5.79;100.00;103359.47;1799140;78;938578;-77
2021/03/03 07:32:57;;;;;;;107.03;42.83;;;;;;;5.85;100.00;103373.02;1787382;78;938648;-78
2021/03/03 07:35:27;;;;;;;107.27;44.87;;;;;;;5.84;100.00;103372.68;1798958;78;940760;-78
2021/03/03 07:37:58;;;;;;;99.40;43.95;;;;;;;5.91;100.00;103377.78;1787167;79;940823;-78
2021/03/03 07:40:29;;;;;;;111.17;44.67;;;;;;;5.90;100.00;103396.23;1798958;79;937770;-78
2021/03/03 07:43:01;;;;;;;106.20;45.20;;;;;;;5.86;100.00;103390.77;1787393;78;940769;-77
2021/03/03 07:45:36;;;;;;;108.27;43.97;;;;;;;5.83;100.00;103402.16;1799088;79;940612;-78
2021/03/03 07:48:09;;;;;;;99.20;44.60;;;;;;;5.91;100.00;103386.05;1787333;79;940674;-78
2021/03/03 07:50:40;;;;;;;107.13;42.87;;;;;;;5.94;100.00;103380.17;1799067;79;936843;-77
2021/03/03 07:53:12;;;;;;;101.13;44.47;;;;;;;5.92;100.00;103385.87;1787180;79;940708;-78
2021/03/03 07:55:43;;;;;;;96.90;42.93;;;;;;;5.80;100.00;103384.62;1798949;77;939284;-76
2021/03/03 07:58:14;;;;;;;98.37;42.40;;;;;;;5.81;100.00;103386.34;1799080;78;938703;-76
2021/03/03 08:00:45;;;;;;;110.50;43.50;;;;;;;5.79;100.00;103384.80;1799129;79;936733;-77
2021/03/03 08:03:14;;;;;;;121.07;43.70;;;;;;;5.86;100.00;103381.63;1798844;77;940850;-77
2021/03/03 08:05:44;;;;;;;108.97;46.33;;;;;;;5.99;100.00;103383.73;1799414;77;938937;-77
2021/03/03 08:08:24;;;;;;;107.37;44.57;;;;;;;6.04;100.00;103379.84;1799210;78;940816;-77
2021/03/03 08:10:56;;;;;;;109.60;43.67;;;;;;;6.01;100.00;103385.77;1787422;79;940811;-78
2021/03/03 08:13:36;;;;;;;107.43;46.40;;;;;;;6.04;100.00;103397.78;1795995;77;940757;-78
2021/03/03 08:16:07;;;;;;;104.50;45.70;;;;;;;5.93;100.00;103405.52;1787374;78;940783;-78
2021/03/03 08:18:38;;;;;;;113.93;44.13;;;;;;;5.97;100.00;103414.78;1798985;79;938890;-78
2021/03/03 08:21:28;;;;;;;118.57;45.77;;;;;;;5.99;100.00;103407.19;1787379;78;940775;-78
2021/03/03 08:23:58;;;;;;;105.70;42.93;;;;;;;6.13;100.00;103409.05;1787400;77;940842;-78
2021/03/03 08:26:37;;;;;;;109.95;44.30;;;;;;;5.94;100.00;103403.11;1798961;78;940882;-78
2021/03/03 08:29:23;;;;;;;103.63;42.90;;;;;;;5.93;100.00;103414.32;1787272;78;940812;-78
2021/03/03 08:31:53;;;;;;;100.25;42.13;;;;;;;6.02;100.00;103414.55;1787208;79;940686;-77
2021/03/03 08:34:23;;;;;;;114.03;45.77;;;;;;;6.06;100.00;103422.77;1799158;78;941057;-77
2021/03/03 08:37:11;;;;;;;106.52;44.85;;;;;;;6.00;100.00;103429.05;1787155;79;940814;-77
2021/03/03 08:39:41;;;;;;;113.23;43.73;;;;;;;5.97;100.00;103426.69;1797020;77;938848;-77
2021/03/03 08:42:33;;;;;;;112.93;43.00;;;;;;;6.05;100.00;103409.16;1787341;78;940826;-77
2021/03/03 08:45:14;;;;;;;113.67;42.23;;;;;;;5.99;100.00;103417.67;1787288;78;939971;-78
2021/03/03 08:47:53;;;;;;;115.50;43.17;;;;;;;6.02;100.00;103417.83;1799055;78;938764;-80
2021/03/03 08:50:44;;;;;;;111.87;43.20;;;;;;;6.15;100.00;103416.09;1799159;79;940992;-79
2021/03/03 08:53:40;;;;;;;112.33;43.33;;;;;;;6.15;100.00;103410.58;1799033;79;940766;-78
2021/03/03 08:56:35;;;;;;;112.17;42.57;;;;;;;6.18;100.00;103401.91;1786556;77;940684;-79
2021/03/03 08:59:06;;;;;;;111.20;42.70;;;;;;;6.28;100.00;103402.98;1787420;77;940729;-78
2021/03/03 09:01:55;;;;;;;108.73;44.53;;;;;;;6.26;100.00;103405.06;1799023;78;938822;-78
2021/03/03 09:04:27;;;;;;;105.53;42.07;;;;;;;6.22;100.00;103404.61;1799001;78;939989;-79
2021/03/03 09:06:59;;;;;;;109.80;42.63;;;;;;;6.33;100.00;103412.92;1787096;79;940721;-79
2021/03/03 09:09:31;;;;;;;101.80;42.13;;;;;;;6.39;100.00;103409.36;1799002;78;941033;-79
2021/03/03 09:12:06;;;;;;;103.32;42.55;;;;;;;6.32;100.00;103407.92;1786787;77;940836;-79
2021/03/03 09:14:37;;;;;;;96.73;40.93;;;;;;;6.37;100.00;103421.14;1798870;77;938899;-79
2021/03/03 09:17:08;;;;;;;106.37;42.73;;;;;;;6.38;100.00;103429.73;1787391;77;938747;-78
2021/03/03 09:19:40;;;;;;;107.20;43.83;;;;;;;6.37;100.00;103424.73;1798915;79;939224;-79
2021/03/03 09:22:19;;;;;;;113.00;44.33;;;;;;;6.31;100.00;103424.67;1787165;79;940695;-79
2021/03/03 09:24:50;;;;;;;107.43;40.33;;;;;;;6.27;100.00;103428.34;1787009;77;941017;-79
2021/03/03 09:27:21;;;;;;;97.23;39.70;;;;;;;6.30;100.00;103421.05;1798843;77;940793;-79
2021/03/03 09:29:52;;;;;;;96.77;39.47;;;;;;;6.18;100.00;103418.47;1787389;79;938731;-76
2021/03/03 09:32:23;;;;;;;85.87;40.33;;;;;;;6.41;100.00;103421.08;1799209;78;938587;-78
2021/03/03 09:34:54;;;;;;;107.05;42.75;;;;;;;6.40;100.00;103424.36;1787461;78;937543;-78
2021/03/03 09:37:24;;;;;;;103.67;42.07;;;;;;;6.34;100.00;103429.27;1799181;78;940694;-78
2021/03/03 09:39:56;;;;;;;112.37;42.45;;;;;;;6.54;100.00;103442.47;1787337;79;941064;-78
2021/03/03 09:42:39;;;;;;;106.00;42.30;;;;;;;6.52;100.00;103441.27;1799119;78;940792;-78
2021/03/03 09:45:16;;;;;;;105.03;43.20;;;;;;;6.55;100.00;103449.67;1787367;78;940706;-78
2021/03/03 09:47:47;;;;;;;113.95;44.10;;;;;;;6.54;100.00;103452.13;1798804;79;938863;-78
2021/03/03 09:50:18;;;;;;;108.57;43.97;;;;;;;6.49;100.00;103443.05;1799111;78;940804;-78
2021/03/03 09:52:51;;;;;;;110.87;43.20;;;;;;;6.46;100.00;103440.66;1787175;78;941007;-77
2021/03/03 09:55:22;;;;;;;107.57;43.80;;;;;;;6.44;100.00;103439.16;1799118;77;940834;-79
2021/03/03 09:57:54;;;;;;;110.32;44.83;;;;;;;6.47;100.00;103441.52;1787147;78;940815;-81
2021/03/03 10:00:27;;;;;;;113.93;46.00;;;;;;;6.51;100.00;103438.69;1799199;78;940752;-82
2021/03/03 10:03:00;;;;;;;110.13;42.87;;;;;;;6.57;100.00;103434.64;1787371;79;940967;-80
2021/03/03 10:05:32;;;;;;;110.90;44.73;;;;;;;6.72;100.00;103431.80;1799262;79;940890;-80
2021/03/03 10:08:04;;;;;;;116.55;45.65;;;;;;;6.69;100.00;103434.45;1787536;77;940818;-80
2021/03/03 10:10:36;;;;;;;109.03;44.80;;;;;;;6.65;100.00;103439.18;1799191;79;938954;-80
2021/03/03 10:13:06;;;;;;;119.62;46.37;;;;;;;6.88;100.00;103436.23;1787381;79;940960;-79
2021/03/03 10:15:38;;;;;;;113.63;45.60;;;;;;;6.91;100.00;103435.83;1799394;79;939015;-80
2021/03/03 10:18:10;;;;;;;121.87;47.87;;;;;;;6.95;100.00;103430.23;1787235;78;940854;-80
2021/03/03 10:20:43;;;;;;;120.53;46.80;;;;;;;6.95;100.00;103433.86;1799085;79;939414;-80
2021/03/03 10:23:15;;;;;;;125.60;46.07;;;;;;;6.96;100.00;103416.23;1799026;78;941027;-79
2021/03/03 10:25:47;;;;;;;112.87;45.87;;;;;;;7.13;100.00;103406.60;1799022;79;939043;-80
2021/03/03 10:28:19;;;;;;;119.17;46.00;;;;;;;7.16;100.00;103406.19;1799138;78;940796;-80
2021/03/03 10:30:51;;;;;;;110.93;45.07;;;;;;;7.23;100.00;103404.88;1787552;77;941111;-80
2021/03/03 10:33:29;;;;;;;114.57;45.93;;;;;;;7.19;100.00;103407.16;1799437;79;940909;-81
2021/03/03 10:36:00;;;;;;;115.67;45.17;;;;;;;7.27;100.00;103411.16;1787313;77;941164;-81
2021/03/03 10:38:33;;;;;;;97.23;43.07;;;;;;;7.23;100.00;103415.38;1799178;79;940769;-81
2021/03/03 10:41:06;;;;;;;88.72;40.08;;;;;;;7.25;100.00;103422.11;1787697;78;938829;-81
2021/03/03 10:43:37;;;;;;;95.97;43.17;;;;;;;7.14;100.00;103412.98;1799408;77;936808;-82
2021/03/03 10:46:12;;;;;;;92.43;41.67;;;;;;;7.11;100.00;103418.38;1786606;77;938591;-81
2021/03/03 10:48:42;;;;;;;102.30;44.73;;;;;;;7.11;100.00;103407.84;1799184;78;936933;-81
2021/03/03 10:51:15;;;;;;;100.27;41.93;;;;;;;7.23;100.00;103402.94;1798974;79;940781;-81
2021/03/03 10:53:50;;;;;;;101.20;43.67;;;;;;;7.15;100.00;103418.82;1799331;79;939066;-81
2021/03/03 10:56:28;;;;;;;96.53;41.07;;;;;;;7.22;100.00;103411.45;1799234;78;940999;-81
2021/03/03 10:58:59;;;;;;;91.10;42.35;;;;;;;7.29;100.00;103415.98;1787378;77;938941;-81
2021/03/03 11:01:43;;;;;;;98.40;43.17;;;;;;;7.33;100.00;103404.84;1799493;78;938726;-82
2021/03/03 11:04:14;;;;;;;97.30;43.67;;;;;;;7.49;100.00;103400.04;1799221;79;938718;-79
2021/03/03 11:06:44;;;;;;;100.67;43.37;;;;;;;7.51;100.00;103390.50;1799170;79;936961;-78
2021/03/03 11:09:16;;;;;;;102.30;43.30;;;;;;;7.56;100.00;103386.60;1799094;79;940957;-77
2021/03/03 11:11:50;;;;;;;94.80;41.60;;;;;;;7.56;100.00;103380.21;1799273;79;938775;-78
2021/03/03 11:14:20;;;;;;;103.37;44.27;;;;;;;7.45;100.00;103383.53;1799118;79;938716;-80
2021/03/03 11:16:51;;;;;;;98.77;45.67;;;;;;;7.55;100.00;103397.33;1786850;79;940867;-79
2021/03/03 11:19:21;;;;;;;96.33;41.87;;;;;;;7.43;100.00;103381.51;1799167;77;938673;-80